Aérodrome :
LOGIN :

S'inscrire | Disclaimer

   EN    FR    IT 

 










Légende :    VFR   VFR Marginal   IFR   IFR Intensif   IFR Très Intensif
Visi : 
Plafond : 
>= 8 km
>= 3000ft
5 à 8 km
1000 à 3000 ft
1500m à 5 km
500 à 1000 ft
800 à 1500m
200 à 500 ft
< 800m
< 200 ft
Symboles :   Orages  Brouillard  Fortes neiges  Fortes précipitations  Vent > 20 kt
SIGMETs :   Divers  Orages  Givrage  Turbulence  Onde Orograph.  Cendres Volcan.






- Altitude de l'aérodrome : 37 ft


EHVL - Vlieland Heliport

DERNIER METAR :
  • 060455Z AUTO 22023KT 3700 BR BKN011 OVC014 10/09 Q1005 GRN

METARs EXPIRÉS :
  • 060439Z AUTO 23026KT 4700 BR FEW008 BKN010 OVC013 10/09 Q1005 GRN
  • 060425Z AUTO 23027KT 5000 BR FEW007 BKN008 OVC010 10/09 Q1005 REDZ GRN
  • 060409Z AUTO 23028KT 3300 BR FEW005 SCT007 BKN008 10/09 Q1005 YLO
  • 060355Z AUTO 23029KT 2800 -DZ FEW004 BKN006 BKN007 10/09 Q1005 YLO
  • 060348Z AUTO 23030KT 2900 DZRA SCT005 BKN006 OVC008 10/09 Q1005 YLO
  • 060325Z AUTO 23031KT 2700 -RA FEW004 BKN005 OVC006 10/09 Q1005 RERA REDZ YLO
  • 060308Z AUTO 23030KT 2800 -RA FEW004 SCT006 BKN007 10/09 Q1005 YLO
  • 060255Z AUTO 23031KT 3900 DZ FEW009 BKN010 OVC013 10/09 Q1005 GRN
  • 060233Z AUTO 23030KT 8000 BR SCT011 BKN014 OVC017 10/09 Q1005 GRN
  • 060225Z AUTO 23031KT 8000 BR FEW013 OVC015 10/09 Q1005 WHT
  • 060208Z AUTO 23031KT 8000 BR SCT011 BKN013 OVC015 10/08 Q1005 GRN

Prévision TAF périmée.



MET'MAP, la Météo Aéronautique d'un coup d'oeil ! - Copyright ORBIFLY Décembre 2007 - Disclaimer

ORBIFLY MET'MAP TEAM :

Programmation & Développement : Alexandra Zaïnal
Sur une idée originale de : Baudouin d'Aumeries
Assistance à la programmation : Marc-Olivier Méhu
Soutien technique & logistique : Manuel Goepfert

Contact : metmap@orbifly.com




SOURCES & CREDITS :

   NOAA